sensor_id;sensor_type;location;lat;lon;timestamp;pressure;altitude;pressure_sealevel;temperature;humidity
59289;BME280;45056;47.602;9.886;2024-02-21T00:01:55;93880.94;;;5.37;61.07
59289;BME280;45056;47.602;9.886;2024-02-21T00:04:23;93880.94;;;5.33;60.98
59289;BME280;45056;47.602;9.886;2024-02-21T00:06:51;93874.41;;;5.30;61.07
59289;BME280;45056;47.602;9.886;2024-02-21T00:09:19;93867.03;;;5.27;61.44
59289;BME280;45056;47.602;9.886;2024-02-21T00:11:47;93865.13;;;5.24;61.08
59289;BME280;45056;47.602;9.886;2024-02-21T00:14:15;93859.34;;;5.22;61.19
59289;BME280;45056;47.602;9.886;2024-02-21T00:16:44;93853.56;;;5.16;61.24
59289;BME280;45056;47.602;9.886;2024-02-21T00:19:12;93855.84;;;5.14;61.30
59289;BME280;45056;47.602;9.886;2024-02-21T00:21:41;93853.94;;;5.11;61.24
59289;BME280;45056;47.602;9.886;2024-02-21T00:24:09;93850.84;;;5.05;61.46
59289;BME280;45056;47.602;9.886;2024-02-21T00:26:37;93853.16;;;5.03;61.60
59289;BME280;45056;47.602;9.886;2024-02-21T00:29:05;93859.31;;;5.04;61.65
59289;BME280;45056;47.602;9.886;2024-02-21T00:31:32;93851.25;;;5.08;61.61
59289;BME280;45056;47.602;9.886;2024-02-21T00:34:02;93838.91;;;5.10;61.40
59289;BME280;45056;47.602;9.886;2024-02-21T00:36:30;93834.28;;;5.14;61.35
59289;BME280;45056;47.602;9.886;2024-02-21T00:38:58;93840.06;;;5.16;61.28
59289;BME280;45056;47.602;9.886;2024-02-21T00:41:26;93848.94;;;5.17;61.04
59289;BME280;45056;47.602;9.886;2024-02-21T00:43:54;93840.47;;;5.18;60.75
59289;BME280;45056;47.602;9.886;2024-02-21T00:46:22;93850.47;;;5.18;60.86
59289;BME280;45056;47.602;9.886;2024-02-21T00:48:50;93849.69;;;5.21;60.71
59289;BME280;45056;47.602;9.886;2024-02-21T00:51:20;93859.72;;;5.24;60.70
59289;BME280;45056;47.602;9.886;2024-02-21T00:53:48;93850.09;;;5.27;60.65
59289;BME280;45056;47.602;9.886;2024-02-21T00:56:16;93838.53;;;5.26;60.73
59289;BME280;45056;47.602;9.886;2024-02-21T00:58:44;93838.91;;;5.28;60.63
59289;BME280;45056;47.602;9.886;2024-02-21T01:01:13;93838.91;;;5.28;60.44
59289;BME280;45056;47.602;9.886;2024-02-21T01:03:48;93829.66;;;5.29;60.39
59289;BME280;45056;47.602;9.886;2024-02-21T01:06:16;93825.03;;;5.30;60.33
59289;BME280;45056;47.602;9.886;2024-02-21T01:08:45;93821.97;;;5.31;60.21
59289;BME280;45056;47.602;9.886;2024-02-21T01:11:14;93825.44;;;5.32;60.10
59289;BME280;45056;47.602;9.886;2024-02-21T01:13:42;93816.56;;;5.31;60.04
59289;BME280;45056;47.602;9.886;2024-02-21T01:16:10;93820.81;;;5.32;60.05
59289;BME280;45056;47.602;9.886;2024-02-21T01:18:38;93828.91;;;5.32;59.76
59289;BME280;45056;47.602;9.886;2024-02-21T01:21:07;93825.06;;;5.33;59.92
59289;BME280;45056;47.602;9.886;2024-02-21T01:23:37;93813.09;;;5.34;59.85
59289;BME280;45056;47.602;9.886;2024-02-21T01:26:08;93810.41;;;5.34;59.84
59289;BME280;45056;47.602;9.886;2024-02-21T01:28:39;93802.31;;;5.34;59.80
59289;BME280;45056;47.602;9.886;2024-02-21T01:31:08;93800.38;;;5.35;59.81
59289;BME280;45056;47.602;9.886;2024-02-21T01:33:36;93799.59;;;5.34;59.52
59289;BME280;45056;47.602;9.886;2024-02-21T01:36:05;93804.59;;;5.29;59.35
59289;BME280;45056;47.602;9.886;2024-02-21T01:38:34;93792.25;;;5.24;59.20
59289;BME280;45056;47.602;9.886;2024-02-21T01:41:03;93791.13;;;5.22;59.25
59289;BME280;45056;47.602;9.886;2024-02-21T01:43:32;93796.91;;;5.20;59.30
59289;BME280;45056;47.602;9.886;2024-02-21T01:46:00;93795.38;;;5.15;59.30
59289;BME280;45056;47.602;9.886;2024-02-21T01:48:29;93792.66;;;5.12;59.34
59289;BME280;45056;47.602;9.886;2024-02-21T01:50:57;93796.50;;;5.07;59.38
59289;BME280;45056;47.602;9.886;2024-02-21T01:53:30;93788.03;;;5.09;59.54
59289;BME280;45056;47.602;9.886;2024-02-21T01:56:01;93781.50;;;5.10;59.57
59289;BME280;45056;47.602;9.886;2024-02-21T01:58:36;93781.88;;;5.12;59.51
59289;BME280;45056;47.602;9.886;2024-02-21T02:01:06;93799.19;;;5.14;59.20
59289;BME280;45056;47.602;9.886;2024-02-21T02:03:34;93787.28;;;5.15;59.10
59289;BME280;45056;47.602;9.886;2024-02-21T02:06:05;93779.94;;;5.16;59.22
59289;BME280;45056;47.602;9.886;2024-02-21T02:08:33;93774.94;;;5.18;59.12
59289;BME280;45056;47.602;9.886;2024-02-21T02:11:02;93781.88;;;5.19;59.10
59289;BME280;45056;47.602;9.886;2024-02-21T02:13:30;93786.09;;;5.20;59.27
59289;BME280;45056;47.602;9.886;2024-02-21T02:15:59;93781.88;;;5.19;59.32
59289;BME280;45056;47.602;9.886;2024-02-21T02:18:27;93776.47;;;5.23;59.20
59289;BME280;45056;47.602;9.886;2024-02-21T02:20:55;93769.13;;;5.23;59.09
59289;BME280;45056;47.602;9.886;2024-02-21T02:23:25;93767.59;;;5.22;58.83
59289;BME280;45056;47.602;9.886;2024-02-21T02:25:55;93759.50;;;5.22;58.75
59289;BME280;45056;47.602;9.886;2024-02-21T02:28:23;93747.19;;;5.25;58.71
59289;BME280;45056;47.602;9.886;2024-02-21T02:30:51;93755.66;;;5.27;58.87
59289;BME280;45056;47.602;9.886;2024-02-21T02:33:19;93744.06;;;5.26;58.69
59289;BME280;45056;47.602;9.886;2024-02-21T02:35:47;93739.09;;;5.25;58.67
59289;BME280;45056;47.602;9.886;2024-02-21T02:38:15;93732.16;;;5.24;58.87
59289;BME280;45056;47.602;9.886;2024-02-21T02:40:44;93724.06;;;5.20;58.92
59289;BME280;45056;47.602;9.886;2024-02-21T02:43:12;93723.66;;;5.14;58.96
59289;BME280;45056;47.602;9.886;2024-02-21T02:45:40;93720.97;;;5.11;59.11
59289;BME280;45056;47.602;9.886;2024-02-21T02:48:09;93720.22;;;5.07;59.26
59289;BME280;45056;47.602;9.886;2024-02-21T02:50:37;93704.03;;;5.03;59.22
59289;BME280;45056;47.602;9.886;2024-02-21T02:53:05;93704.03;;;4.99;59.42
59289;BME280;45056;47.602;9.886;2024-02-21T02:55:33;93702.47;;;4.98;59.45
59289;BME280;45056;47.602;9.886;2024-02-21T02:58:03;93690.56;;;4.99;59.48
59289;BME280;45056;47.602;9.886;2024-02-21T03:00:31;93700.19;;;5.00;59.46
59289;BME280;45056;47.602;9.886;2024-02-21T03:03:02;93697.09;;;5.02;59.26
59289;BME280;45056;47.602;9.886;2024-02-21T03:05:31;93702.13;;;5.03;58.87
59289;BME280;45056;47.602;9.886;2024-02-21T03:07:59;93701.72;;;5.01;58.49
59289;BME280;45056;47.602;9.886;2024-02-21T03:10:27;93704.81;;;5.03;58.43
59289;BME280;45056;47.602;9.886;2024-02-21T03:12:55;93700.16;;;5.04;58.35
59289;BME280;45056;47.602;9.886;2024-02-21T03:15:24;93692.88;;;5.04;58.25
59289;BME280;45056;47.602;9.886;2024-02-21T03:17:52;93689.00;;;5.05;58.18
59289;BME280;45056;47.602;9.886;2024-02-21T03:20:20;93694.78;;;5.08;58.11
59289;BME280;45056;47.602;9.886;2024-02-21T03:22:48;93689.78;;;5.10;57.87
59289;BME280;45056;47.602;9.886;2024-02-21T03:25:16;93691.69;;;5.09;57.83
59289;BME280;45056;47.602;9.886;2024-02-21T03:27:46;93680.13;;;5.09;57.58
59289;BME280;45056;47.602;9.886;2024-02-21T03:30:14;93677.06;;;5.07;57.53
59289;BME280;45056;47.602;9.886;2024-02-21T03:32:44;93686.31;;;5.05;57.84
59289;BME280;45056;47.602;9.886;2024-02-21T03:35:12;93685.16;;;5.03;57.86
59289;BME280;45056;47.602;9.886;2024-02-21T03:37:40;93682.84;;;5.01;57.75
59289;BME280;45056;47.602;9.886;2024-02-21T03:40:09;93686.31;;;5.02;57.46
59289;BME280;45056;47.602;9.886;2024-02-21T03:42:38;93681.69;;;5.02;57.87
59289;BME280;45056;47.602;9.886;2024-02-21T03:45:07;93692.47;;;5.02;57.71
59289;BME280;45056;47.602;9.886;2024-02-21T03:47:36;93695.19;;;5.02;57.55
59289;BME280;45056;47.602;9.886;2024-02-21T03:50:07;93680.91;;;5.02;57.56
59289;BME280;45056;47.602;9.886;2024-02-21T03:52:35;93679.00;;;5.02;57.56
59289;BME280;45056;47.602;9.886;2024-02-21T03:55:03;93674.34;;;5.03;57.38
59289;BME280;45056;47.602;9.886;2024-02-21T03:57:34;93673.97;;;5.04;57.38
59289;BME280;45056;47.602;9.886;2024-02-21T04:00:02;93658.19;;;5.07;57.25
59289;BME280;45056;47.602;9.886;2024-02-21T04:02:32;93650.84;;;5.07;57.21
59289;BME280;45056;47.602;9.886;2024-02-21T04:05:00;93645.06;;;5.05;56.95
59289;BME280;45056;47.602;9.886;2024-02-21T04:07:29;93648.94;;;5.04;57.35
59289;BME280;45056;47.602;9.886;2024-02-21T04:09:57;93656.63;;;5.05;57.29
59289;BME280;45056;47.602;9.886;2024-02-21T04:12:25;93651.25;;;5.05;57.35
59289;BME280;45056;47.602;9.886;2024-02-21T04:14:53;93648.56;;;5.05;57.45
59289;BME280;45056;47.602;9.886;2024-02-21T04:17:21;93648.56;;;5.05;57.57
59289;BME280;45056;47.602;9.886;2024-02-21T04:19:49;93642.38;;;5.05;57.54
59289;BME280;45056;47.602;9.886;2024-02-21T04:22:17;93633.53;;;5.04;57.75
59289;BME280;45056;47.602;9.886;2024-02-21T04:24:47;93625.44;;;5.04;57.49
59289;BME280;45056;47.602;9.886;2024-02-21T04:27:15;93621.56;;;5.05;57.44
59289;BME280;45056;47.602;9.886;2024-02-21T04:29:43;93619.25;;;5.08;57.59
59289;BME280;45056;47.602;9.886;2024-02-21T04:32:11;93622.34;;;5.10;57.53
59289;BME280;45056;47.602;9.886;2024-02-21T04:34:40;93622.31;;;5.13;57.24
59289;BME280;45056;47.602;9.886;2024-02-21T04:37:09;93617.31;;;5.15;56.62
59289;BME280;45056;47.602;9.886;2024-02-21T04:39:37;93615.38;;;5.16;56.33
59289;BME280;45056;47.602;9.886;2024-02-21T04:42:06;93607.28;;;5.16;55.88
59289;BME280;45056;47.602;9.886;2024-02-21T04:44:34;93601.50;;;5.14;55.94
59289;BME280;45056;47.602;9.886;2024-02-21T04:47:02;93595.34;;;5.13;55.96
59289;BME280;45056;47.602;9.886;2024-02-21T04:49:30;93594.56;;;5.13;55.75
59289;BME280;45056;47.602;9.886;2024-02-21T04:51:58;93585.31;;;5.10;55.74
59289;BME280;45056;47.602;9.886;2024-02-21T04:54:26;93585.34;;;5.07;55.81
59289;BME280;45056;47.602;9.886;2024-02-21T04:56:54;93585.34;;;5.07;56.00
59289;BME280;45056;47.602;9.886;2024-02-21T04:59:24;93581.88;;;5.06;56.02
59289;BME280;45056;47.602;9.886;2024-02-21T05:01:52;93569.16;;;5.07;56.23
59289;BME280;45056;47.602;9.886;2024-02-21T05:04:20;93570.31;;;5.05;56.44
59289;BME280;45056;47.602;9.886;2024-02-21T05:06:48;93562.22;;;5.02;56.76
59289;BME280;45056;47.602;9.886;2024-02-21T05:09:16;93551.84;;;4.93;57.33
59289;BME280;45056;47.602;9.886;2024-02-21T05:11:44;93554.19;;;4.84;57.87
59289;BME280;45056;47.602;9.886;2024-02-21T05:14:12;93545.72;;;4.78;58.10
59289;BME280;45056;47.602;9.886;2024-02-21T05:16:42;93538.41;;;4.75;58.35
59289;BME280;45056;47.602;9.886;2024-02-21T05:19:10;93545.75;;;4.71;58.48
59289;BME280;45056;47.602;9.886;2024-02-21T05:21:38;93529.97;;;4.62;58.90
59289;BME280;45056;47.602;9.886;2024-02-21T05:24:05;93529.63;;;4.53;59.28
59289;BME280;45056;47.602;9.886;2024-02-21T05:26:33;93527.69;;;4.50;59.52
59289;BME280;45056;47.602;9.886;2024-02-21T05:29:02;93523.09;;;4.46;59.67
59289;BME280;45056;47.602;9.886;2024-02-21T05:32:00;93513.84;;;4.44;59.90
59289;BME280;45056;47.602;9.886;2024-02-21T05:34:28;93510.00;;;4.34;60.17
59289;BME280;45056;47.602;9.886;2024-02-21T05:36:56;93510.78;;;4.24;60.87
59289;BME280;45056;47.602;9.886;2024-02-21T05:39:26;93514.66;;;4.15;61.16
59289;BME280;45056;47.602;9.886;2024-02-21T05:41:55;93514.66;;;4.15;61.12
59289;BME280;45056;47.602;9.886;2024-02-21T05:44:23;93518.88;;;4.16;61.19
59289;BME280;45056;47.602;9.886;2024-02-21T05:46:53;93524.66;;;4.15;61.07
59289;BME280;45056;47.602;9.886;2024-02-21T05:49:22;93516.56;;;4.18;61.11
59289;BME280;45056;47.602;9.886;2024-02-21T05:51:51;93515.81;;;4.22;61.24
59289;BME280;45056;47.602;9.886;2024-02-21T05:54:19;93512.72;;;4.27;60.93
59289;BME280;45056;47.602;9.886;2024-02-21T05:56:47;93523.47;;;4.34;61.04
59289;BME280;45056;47.602;9.886;2024-02-21T05:59:15;93517.31;;;4.41;60.87
59289;BME280;45056;47.602;9.886;2024-02-21T06:01:43;93525.38;;;4.48;60.63
59289;BME280;45056;47.602;9.886;2024-02-21T06:04:11;93511.91;;;4.52;60.70
59289;BME280;45056;47.602;9.886;2024-02-21T06:06:40;93513.06;;;4.51;60.43
59289;BME280;45056;47.602;9.886;2024-02-21T06:09:08;93520.00;;;4.55;60.50
59289;BME280;45056;47.602;9.886;2024-02-21T06:11:36;93522.66;;;4.59;60.51
59289;BME280;45056;47.602;9.886;2024-02-21T06:14:04;93516.13;;;4.64;60.44
59289;BME280;45056;47.602;9.886;2024-02-21T06:16:32;93511.13;;;4.66;60.53
59289;BME280;45056;47.602;9.886;2024-02-21T06:19:00;93512.28;;;4.68;60.41
59289;BME280;45056;47.602;9.886;2024-02-21T06:21:30;93506.84;;;4.72;60.40
59289;BME280;45056;47.602;9.886;2024-02-21T06:23:59;93499.56;;;4.72;60.26
59289;BME280;45056;47.602;9.886;2024-02-21T06:26:27;93505.31;;;4.71;60.44
59289;BME280;45056;47.602;9.886;2024-02-21T06:28:55;93509.16;;;4.70;60.40
59289;BME280;45056;47.602;9.886;2024-02-21T06:31:23;93501.88;;;4.70;60.14
59289;BME280;45056;47.602;9.886;2024-02-21T06:33:51;93504.94;;;4.69;60.02
59289;BME280;45056;47.602;9.886;2024-02-21T06:36:19;93495.72;;;4.62;60.16
59289;BME280;45056;47.602;9.886;2024-02-21T06:38:47;93499.56;;;4.58;60.08
59289;BME280;45056;47.602;9.886;2024-02-21T06:41:18;93509.97;;;4.59;60.05
59289;BME280;45056;47.602;9.886;2024-02-21T06:43:46;93514.19;;;4.64;60.09
59289;BME280;45056;47.602;9.886;2024-02-21T06:46:23;93522.66;;;4.70;60.36
59289;BME280;45056;47.602;9.886;2024-02-21T06:48:53;93517.63;;;4.72;59.94
59289;BME280;45056;47.602;9.886;2024-02-21T06:51:22;93514.56;;;4.73;59.76
59289;BME280;45056;47.602;9.886;2024-02-21T06:53:51;93524.19;;;4.74;59.19
59289;BME280;45056;47.602;9.886;2024-02-21T06:56:20;93514.94;;;4.75;58.90
59289;BME280;45056;47.602;9.886;2024-02-21T06:58:53;93508.75;;;4.79;59.08
59289;BME280;45056;47.602;9.886;2024-02-21T07:01:21;93502.19;;;4.83;59.05
59289;BME280;45056;47.602;9.886;2024-02-21T07:03:49;93493.72;;;4.88;59.25
59289;BME280;45056;47.602;9.886;2024-02-21T07:06:17;93499.09;;;4.92;59.01
59289;BME280;45056;47.602;9.886;2024-02-21T07:08:45;93496.00;;;4.94;58.80
59289;BME280;45056;47.602;9.886;2024-02-21T07:11:13;93489.41;;;4.98;58.69
59289;BME280;45056;47.602;9.886;2024-02-21T07:13:43;93483.63;;;5.03;58.18
59289;BME280;45056;47.602;9.886;2024-02-21T07:16:11;93484.38;;;5.08;57.81
59289;BME280;45056;47.602;9.886;2024-02-21T07:18:39;93485.13;;;5.12;57.59
59289;BME280;45056;47.602;9.886;2024-02-21T07:21:07;93488.59;;;5.16;57.55
59289;BME280;45056;47.602;9.886;2024-02-21T07:23:35;93472.41;;;5.16;57.53
59289;BME280;45056;47.602;9.886;2024-02-21T07:26:04;93471.22;;;5.17;57.64
59289;BME280;45056;47.602;9.886;2024-02-21T07:28:32;93456.22;;;5.16;57.48
59289;BME280;45056;47.602;9.886;2024-02-21T07:31:01;93463.16;;;5.17;57.57
59289;BME280;45056;47.602;9.886;2024-02-21T07:33:29;93468.53;;;5.20;57.42
59289;BME280;45056;47.602;9.886;2024-02-21T07:35:59;93464.25;;;5.23;57.25
59289;BME280;45056;47.602;9.886;2024-02-21T07:38:27;93478.88;;;5.29;57.11
59289;BME280;45056;47.602;9.886;2024-02-21T07:40:55;93486.94;;;5.37;57.19
59289;BME280;45056;47.602;9.886;2024-02-21T07:43:23;93483.41;;;5.47;56.60
59289;BME280;45056;47.602;9.886;2024-02-21T07:45:53;93481.81;;;5.57;56.05
59289;BME280;45056;47.602;9.886;2024-02-21T07:48:22;93477.88;;;5.69;55.65
59289;BME280;45056;47.602;9.886;2024-02-21T07:50:53;93481.63;;;5.82;54.82
59289;BME280;45056;47.602;9.886;2024-02-21T07:53:21;93478.47;;;5.91;54.01
59289;BME280;45056;47.602;9.886;2024-02-21T07:55:49;93473.78;;;5.99;53.11
59289;BME280;45056;47.602;9.886;2024-02-21T07:58:17;93472.22;;;6.05;52.74
59289;BME280;45056;47.602;9.886;2024-02-21T08:00:44;93469.09;;;6.10;52.58
59289;BME280;45056;47.602;9.886;2024-02-21T08:03:12;93459.38;;;6.16;52.36
59289;BME280;45056;47.602;9.886;2024-02-21T08:05:43;93460.47;;;6.23;52.01
59289;BME280;45056;47.602;9.886;2024-02-21T08:08:11;93463.53;;;6.28;51.74
59289;BME280;45056;47.602;9.886;2024-02-21T08:10:44;93463.84;;;6.34;51.48
59289;BME280;45056;47.602;9.886;2024-02-21T08:13:13;93454.53;;;6.39;51.28
59289;BME280;45056;47.602;9.886;2024-02-21T08:15:41;93452.16;;;6.44;51.42
59289;BME280;45056;47.602;9.886;2024-02-21T08:18:09;93446.72;;;6.48;51.63
59289;BME280;45056;47.602;9.886;2024-02-21T08:20:37;93438.53;;;6.55;51.76
59289;BME280;45056;47.602;9.886;2024-02-21T08:23:07;93426.81;;;6.66;51.97
59289;BME280;45056;47.602;9.886;2024-02-21T08:25:35;93425.94;;;6.76;51.91
59289;BME280;45056;47.602;9.886;2024-02-21T08:28:04;93430.81;;;6.88;51.90
59289;BME280;45056;47.602;9.886;2024-02-21T08:30:33;93426.38;;;7.02;52.03
59289;BME280;45056;47.602;9.886;2024-02-21T08:33:01;93436.94;;;7.24;52.03
59289;BME280;45056;47.602;9.886;2024-02-21T08:35:30;93427.66;;;7.52;51.92
59289;BME280;45056;47.602;9.886;2024-02-21T08:37:59;93427.56;;;7.83;50.90
59289;BME280;45056;47.602;9.886;2024-02-21T08:40:28;93421.97;;;8.18;49.93
59289;BME280;45056;47.602;9.886;2024-02-21T08:42:56;93422.59;;;8.49;48.56
59289;BME280;45056;47.602;9.886;2024-02-21T08:45:24;93418.16;;;8.79;47.31
59289;BME280;45056;47.602;9.886;2024-02-21T08:47:52;93420.97;;;9.13;46.70
59289;BME280;45056;47.602;9.886;2024-02-21T08:50:20;93420.03;;;9.40;44.96
59289;BME280;45056;47.602;9.886;2024-02-21T08:52:48;93424.97;;;9.61;44.06
59289;BME280;45056;47.602;9.886;2024-02-21T08:55:16;93426.91;;;9.77;43.51
59289;BME280;45056;47.602;9.886;2024-02-21T08:57:45;93421.56;;;9.90;43.44
59289;BME280;45056;47.602;9.886;2024-02-21T09:00:15;93423.28;;;10.01;43.19
59289;BME280;45056;47.602;9.886;2024-02-21T09:02:44;93424.97;;;10.11;42.70
59289;BME280;45056;47.602;9.886;2024-02-21T09:05:12;93418.25;;;10.16;42.27
59289;BME280;45056;47.602;9.886;2024-02-21T09:07:40;93417.50;;;10.15;42.26
59289;BME280;45056;47.602;9.886;2024-02-21T09:10:08;93421.66;;;10.20;42.46
59289;BME280;45056;47.602;9.886;2024-02-21T09:12:36;93417.22;;;10.26;42.29
59289;BME280;45056;47.602;9.886;2024-02-21T09:15:07;93412.44;;;10.30;41.58
59289;BME280;45056;47.602;9.886;2024-02-21T09:17:35;93415.59;;;10.29;41.47
59289;BME280;45056;47.602;9.886;2024-02-21T09:20:04;93419.50;;;10.28;41.49
59289;BME280;45056;47.602;9.886;2024-02-21T09:22:34;93411.69;;;10.30;41.64
59289;BME280;45056;47.602;9.886;2024-02-21T09:25:02;93417.13;;;10.30;41.52
59289;BME280;45056;47.602;9.886;2024-02-21T09:27:31;93417.56;;;10.28;41.56
59289;BME280;45056;47.602;9.886;2024-02-21T09:29:59;93417.22;;;10.26;41.77
59289;BME280;45056;47.602;9.886;2024-02-21T09:32:28;93415.59;;;10.29;44.14
59289;BME280;45056;47.602;9.886;2024-02-21T09:34:56;93417.81;;;10.34;45.49
59289;BME280;45056;47.602;9.886;2024-02-21T09:37:25;93423.91;;;10.38;45.88
59289;BME280;45056;47.602;9.886;2024-02-21T09:39:52;93417.97;;;10.43;45.97
59289;BME280;45056;47.602;9.886;2024-02-21T09:42:21;93409.38;;;10.45;45.45
59289;BME280;45056;47.602;9.886;2024-02-21T09:44:52;93407.75;;;10.47;45.23
59289;BME280;45056;47.602;9.886;2024-02-21T09:47:28;93406.16;;;10.50;44.48
59289;BME280;45056;47.602;9.886;2024-02-21T09:50:14;93394.75;;;10.55;44.18
59289;BME280;45056;47.602;9.886;2024-02-21T09:52:44;93389.97;;;10.59;43.75
59289;BME280;45056;47.602;9.886;2024-02-21T09:55:15;93387.16;;;10.63;42.98
59289;BME280;45056;47.602;9.886;2024-02-21T09:57:45;93391.28;;;10.67;43.04
59289;BME280;45056;47.602;9.886;2024-02-21T10:00:14;93397.06;;;10.70;42.96
59289;BME280;45056;47.602;9.886;2024-02-21T10:02:49;93384.56;;;10.72;42.38
59289;BME280;45056;47.602;9.886;2024-02-21T10:05:17;93390.75;;;10.73;42.32
59289;BME280;45056;47.602;9.886;2024-02-21T10:07:46;93386.09;;;10.73;42.96
59289;BME280;45056;47.602;9.886;2024-02-21T10:10:16;93383.03;;;10.71;43.06
59289;BME280;45056;47.602;9.886;2024-02-21T10:12:48;93386.41;;;10.75;43.87
59289;BME280;45056;47.602;9.886;2024-02-21T10:15:20;93384.34;;;10.79;43.66
59289;BME280;45056;47.602;9.886;2024-02-21T10:17:58;93392.31;;;10.87;43.47
59289;BME280;45056;47.602;9.886;2024-02-21T10:20:27;93386.44;;;10.88;43.11
59289;BME280;45056;47.602;9.886;2024-02-21T10:23:02;93382.88;;;10.91;42.77
59289;BME280;45056;47.602;9.886;2024-02-21T10:25:34;93386.25;;;10.95;42.59
59289;BME280;45056;47.602;9.886;2024-02-21T10:28:04;93385.03;;;10.96;42.39
59289;BME280;45056;47.602;9.886;2024-02-21T10:30:33;93380.72;;;10.99;42.32
59289;BME280;45056;47.602;9.886;2024-02-21T10:33:02;93376.34;;;11.02;41.95
59289;BME280;45056;47.602;9.886;2024-02-21T10:35:33;93375.38;;;11.08;42.67
59289;BME280;45056;47.602;9.886;2024-02-21T10:38:01;93371.22;;;11.17;42.51
59289;BME280;45056;47.602;9.886;2024-02-21T10:40:30;93375.28;;;11.25;42.43
59289;BME280;45056;47.602;9.886;2024-02-21T10:42:59;93373.00;;;11.36;41.98
59289;BME280;45056;47.602;9.886;2024-02-21T10:45:30;93373.09;;;11.46;41.42
59289;BME280;45056;47.602;9.886;2024-02-21T10:48:08;93359.69;;;11.51;40.56
59289;BME280;45056;47.602;9.886;2024-02-21T10:50:53;93361.13;;;11.56;40.97
59289;BME280;45056;47.602;9.886;2024-02-21T10:53:34;93347.25;;;11.63;40.98
59289;BME280;45056;47.602;9.886;2024-02-21T10:56:20;93347.34;;;11.73;40.51
59289;BME280;45056;47.602;9.886;2024-02-21T10:58:50;93334.38;;;11.77;40.03
59289;BME280;45056;47.602;9.886;2024-02-21T11:01:20;93337.19;;;11.86;39.59
59289;BME280;45056;47.602;9.886;2024-02-21T11:03:53;93335.28;;;11.96;39.46
59289;BME280;45056;47.602;9.886;2024-02-21T11:06:23;93333.44;;;12.06;39.61
59289;BME280;45056;47.602;9.886;2024-02-21T11:09:06;93321.41;;;12.16;39.82
59289;BME280;45056;47.602;9.886;2024-02-21T11:11:35;93310.25;;;12.23;39.57
59289;BME280;45056;47.602;9.886;2024-02-21T11:14:06;93306.97;;;12.29;39.69
59289;BME280;45056;47.602;9.886;2024-02-21T11:16:36;93308.22;;;12.37;39.93
59289;BME280;45056;47.602;9.886;2024-02-21T11:19:09;93299.22;;;12.49;40.18
59289;BME280;45056;47.602;9.886;2024-02-21T11:21:38;93300.22;;;12.65;39.63
59289;BME280;45056;47.602;9.886;2024-02-21T11:24:08;93290.44;;;12.77;38.20
59289;BME280;45056;47.602;9.886;2024-02-21T11:26:37;93287.13;;;12.82;38.01
59289;BME280;45056;47.602;9.886;2024-02-21T11:29:06;93277.59;;;12.87;38.42
59289;BME280;45056;47.602;9.886;2024-02-21T11:31:39;93281.25;;;12.93;38.57
59289;BME280;45056;47.602;9.886;2024-02-21T11:34:10;93268.41;;;13.03;37.81
59289;BME280;45056;47.602;9.886;2024-02-21T11:36:50;93267.81;;;13.08;37.23
59289;BME280;45056;47.602;9.886;2024-02-21T11:39:20;93257.38;;;13.16;37.67
59289;BME280;45056;47.602;9.886;2024-02-21T11:42:05;93250.41;;;13.24;37.22
59289;BME280;45056;47.602;9.886;2024-02-21T11:44:36;93245.13;;;13.30;37.66
59289;BME280;45056;47.602;9.886;2024-02-21T11:47:06;93236.94;;;13.39;37.35
59289;BME280;45056;47.602;9.886;2024-02-21T11:49:39;93225.00;;;13.46;37.43
59289;BME280;45056;47.602;9.886;2024-02-21T11:52:12;93225.13;;;13.51;37.12
59289;BME280;45056;47.602;9.886;2024-02-21T11:54:42;93220.75;;;13.54;37.26
59289;BME280;45056;47.602;9.886;2024-02-21T11:57:10;93216.81;;;13.55;36.92
59289;BME280;45056;47.602;9.886;2024-02-21T11:59:40;93212.41;;;13.58;37.29
59289;BME280;45056;47.602;9.886;2024-02-21T12:02:08;93214.25;;;13.61;36.86
59289;BME280;45056;47.602;9.886;2024-02-21T12:04:39;93213.31;;;13.64;36.62
59289;BME280;45056;47.602;9.886;2024-02-21T12:07:07;93210.72;;;13.60;36.40
59289;BME280;45056;47.602;9.886;2024-02-21T12:09:35;93198.28;;;13.59;36.27
59289;BME280;45056;47.602;9.886;2024-02-21T12:12:05;93196.75;;;13.58;36.34
59289;BME280;45056;47.602;9.886;2024-02-21T12:14:35;93197.19;;;13.56;36.08
59289;BME280;45056;47.602;9.886;2024-02-21T12:17:04;93189.00;;;13.56;36.45
59289;BME280;45056;47.602;9.886;2024-02-21T12:19:33;93185.53;;;13.56;36.91
59289;BME280;45056;47.602;9.886;2024-02-21T12:22:03;93180.97;;;13.53;36.94
59289;BME280;45056;47.602;9.886;2024-02-21T12:24:32;93174.72;;;13.52;36.90
59289;BME280;45056;47.602;9.886;2024-02-21T12:27:00;93173.06;;;13.55;36.36
59289;BME280;45056;47.602;9.886;2024-02-21T12:29:30;93170.34;;;13.55;36.59
59289;BME280;45056;47.602;9.886;2024-02-21T12:31:58;93167.91;;;13.57;37.09
59289;BME280;45056;47.602;9.886;2024-02-21T12:34:27;93162.44;;;13.57;37.54
59289;BME280;45056;47.602;9.886;2024-02-21T12:36:59;93165.94;;;13.58;37.32
59289;BME280;45056;47.602;9.886;2024-02-21T12:39:28;93161.81;;;13.62;37.49
59289;BME280;45056;47.602;9.886;2024-02-21T12:41:56;93157.44;;;13.65;37.86
59289;BME280;45056;47.602;9.886;2024-02-21T12:44:24;93151.03;;;13.68;38.08
59289;BME280;45056;47.602;9.886;2024-02-21T12:46:52;93140.13;;;13.68;37.44
59289;BME280;45056;47.602;9.886;2024-02-21T12:49:20;93140.84;;;13.68;37.70
59289;BME280;45056;47.602;9.886;2024-02-21T12:51:48;93135.53;;;13.74;37.13
59289;BME280;45056;47.602;9.886;2024-02-21T12:54:16;93130.38;;;13.76;37.67
59289;BME280;45056;47.602;9.886;2024-02-21T12:56:46;93127.50;;;13.80;38.03
59289;BME280;45056;47.602;9.886;2024-02-21T12:59:14;93129.91;;;13.87;37.34
59289;BME280;45056;47.602;9.886;2024-02-21T13:01:42;93124.00;;;13.89;37.43
59289;BME280;45056;47.602;9.886;2024-02-21T13:04:10;93115.63;;;13.92;37.60
59289;BME280;45056;47.602;9.886;2024-02-21T13:06:38;93096.78;;;13.94;38.00
59289;BME280;45056;47.602;9.886;2024-02-21T13:09:06;93096.16;;;13.99;37.98
59289;BME280;45056;47.602;9.886;2024-02-21T13:11:39;93083.06;;;14.04;37.38
59289;BME280;45056;47.602;9.886;2024-02-21T13:14:09;93077.59;;;14.04;37.53
59289;BME280;45056;47.602;9.886;2024-02-21T13:16:36;93077.59;;;14.04;37.82
59289;BME280;45056;47.602;9.886;2024-02-21T13:19:07;93081.88;;;14.05;37.31